Ampere, New Jersey
Current Conditions -  °F | °C
As of 10:51 PM on Friday 31 Oct 2014 (Local Time) from KEWR Reporting Station
Overcast Overcast  
Wind Chill: 51°   Ceiling: 1700
Heat Index: 51°   Visibility: 10mi
Dew Point: 45°   Wind: 12mph
Humidity: 80%   Direction: 40°NE
Pressure: 29.88"   Gusts: NA
Location:  40.7716°N, 74.2073°W
Report Text: KEWR 010251Z 04010KT 10SM BKN017 BKN025 OVC070 11/07 A2988 RMK AO2 RAB05E43 SLP116 P0000 60000 T01060072 56007
Loading
Personal Weather Stations






























Interactive Weather Map
Tropical Storm Tracking
New forecast layout! Learn more

10-Day Weather Forecast

Advertisements
Track Severe Weather on mobile